Time;durP1;ratioP1;P1;durP2;ratioP2;P2;SDS_P1;SDS_P2;PMS_P1;PMS_P2;Temp;Humidity;BMP_temperature;BMP_pressure;BME280_temperature;BME280_humidity;BME280_pressure;Samples;Min_cycle;Max_cycle;Signal;HPM_P1;HPM_P2
2021/05/02 00:01:49;;;;;;;3.80;3.50;;;6.00;80.60;;;;;;5198059;28;20843;-69
2021/05/02 00:04:21;;;;;;;3.70;3.40;;;6.00;79.60;;;;;;5199809;28;20460;-68
2021/05/02 00:06:53;;;;;;;3.70;3.30;;;6.00;79.30;;;;;;5197936;28;20041;-69
2021/05/02 00:09:24;;;;;;;3.50;3.20;;;5.90;78.80;;;;;;5203138;28;20438;-69
2021/05/02 00:11:56;;;;;;;3.72;3.33;;;5.80;79.80;;;;;;5197351;28;20092;-69
2021/05/02 00:14:28;;;;;;;3.67;3.38;;;5.70;79.90;;;;;;5199509;28;20052;-70
2021/05/02 00:17:00;;;;;;;3.72;3.40;;;5.70;80.50;;;;;;5191600;28;20523;-70
2021/05/02 00:19:33;;;;;;;3.80;3.40;;;5.70;80.80;;;;;;5198909;28;20096;-70
2021/05/02 00:22:06;;;;;;;3.92;3.53;;;5.70;80.50;;;;;;5197441;28;20111;-70
2021/05/02 00:24:38;;;;;;;4.35;3.55;;;5.70;80.50;;;;;;5198191;28;20041;-69
2021/05/02 00:27:10;;;;;;;3.70;3.35;;;5.70;80.20;;;;;;5197393;28;20087;-73
2021/05/02 00:29:43;;;;;;;3.50;3.20;;;5.70;80.10;;;;;;5191673;28;20068;-70
2021/05/02 00:32:15;;;;;;;3.65;3.35;;;5.70;79.80;;;;;;5197617;28;20069;-70
2021/05/02 00:34:47;;;;;;;3.63;3.33;;;5.70;79.90;;;;;;5198506;28;20511;-70
2021/05/02 00:37:20;;;;;;;3.30;3.00;;;5.70;80.10;;;;;;5196251;28;20156;-70
2021/05/02 00:39:52;;;;;;;3.60;3.30;;;5.70;80.10;;;;;;5196828;28;20033;-70
2021/05/02 00:42:29;;;;;;;3.60;3.30;;;5.70;79.50;;;;;;5196732;28;20428;-71
2021/05/02 00:45:06;;;;;;;3.47;3.17;;;5.70;79.50;;;;;;5197598;28;20087;-69
2021/05/02 00:47:44;;;;;;;3.60;3.30;;;5.70;79.40;;;;;;5197521;28;20696;-69
2021/05/02 00:50:21;;;;;;;4.05;3.40;;;5.70;79.90;;;;;;5195395;28;20042;-68
2021/05/02 00:53:01;;;;;;;3.63;3.33;;;5.70;79.60;;;;;;5194539;28;20046;-69
2021/05/02 00:55:38;;;;;;;3.90;3.50;;;5.70;79.70;;;;;;5197204;28;20080;-68
2021/05/02 00:58:15;;;;;;;3.60;3.30;;;5.70;79.80;;;;;;5195797;28;20053;-69
2021/05/02 01:00:53;;;;;;;4.10;3.70;;;5.60;79.40;;;;;;5209698;28;20459;-70
2021/05/02 01:03:25;;;;;;;3.95;3.55;;;5.70;79.30;;;;;;5197407;28;20793;-70
2021/05/02 01:05:59;;;;;;;5.18;3.63;;;5.60;80.20;;;;;;5201444;28;20875;-70
2021/05/02 01:08:34;;;;;;;3.70;3.40;;;5.60;80.10;;;;;;5198179;28;20049;-70
2021/05/02 01:11:05;;;;;;;4.30;3.78;;;5.60;79.90;;;;;;5196895;28;20044;-70
2021/05/02 01:13:44;;;;;;;3.88;3.50;;;5.60;80.00;;;;;;5216501;28;20060;-70
2021/05/02 01:16:17;;;;;;;3.95;3.40;;;5.50;80.40;;;;;;5195870;28;20046;-70
2021/05/02 01:18:49;;;;;;;3.70;3.40;;;5.50;80.70;;;;;;5197971;28;20045;-69
2021/05/02 01:21:28;;;;;;;3.70;3.40;;;5.50;80.10;;;;;;5196868;28;20072;-70
2021/05/02 01:24:00;;;;;;;3.87;3.47;;;5.50;80.10;;;;;;5196183;28;20041;-70
2021/05/02 01:26:34;;;;;;;3.70;3.40;;;5.50;80.80;;;;;;5192921;28;20049;-70
2021/05/02 01:29:05;;;;;;;4.00;3.60;;;5.50;80.50;;;;;;5191917;28;20046;-70
2021/05/02 01:31:37;;;;;;;4.00;3.60;;;5.50;80.80;;;;;;5194152;28;20080;-70
2021/05/02 01:34:10;;;;;;;4.10;3.70;;;5.50;81.80;;;;;;5194578;28;20466;-71
2021/05/02 01:36:42;;;;;;;3.83;3.50;;;5.50;81.00;;;;;;5200542;28;20423;-69
2021/05/02 01:39:13;;;;;;;4.00;3.60;;;5.50;81.10;;;;;;5178465;28;20111;-70
2021/05/02 01:41:45;;;;;;;4.20;3.80;;;5.50;81.50;;;;;;5192718;28;20049;-71
2021/05/02 01:44:16;;;;;;;4.20;3.80;;;5.50;81.80;;;;;;5196954;28;20046;-70
2021/05/02 01:46:49;;;;;;;3.80;3.50;;;5.50;81.80;;;;;;5211444;28;20485;-70
2021/05/02 01:49:23;;;;;;;3.92;3.50;;;5.50;81.00;;;;;;5197024;28;20041;-71
2021/05/02 01:51:56;;;;;;;3.85;3.42;;;5.50;80.50;;;;;;5194470;28;20090;-69
2021/05/02 01:54:29;;;;;;;4.63;3.85;;;5.50;81.00;;;;;;5196523;28;20115;-69
2021/05/02 01:57:01;;;;;;;3.78;3.47;;;5.50;80.90;;;;;;5197053;28;20056;-70
2021/05/02 01:59:34;;;;;;;3.60;3.30;;;5.50;80.80;;;;;;5190844;28;20056;-70
2021/05/02 02:02:06;;;;;;;4.28;3.88;;;5.50;80.80;;;;;;5195067;28;20034;-70
2021/05/02 02:04:40;;;;;;;4.05;3.65;;;5.50;81.40;;;;;;5197601;28;20115;-70
2021/05/02 02:07:18;;;;;;;4.03;3.63;;;5.50;81.40;;;;;;5194532;28;20041;-70
2021/05/02 02:09:52;;;;;;;4.10;3.70;;;5.40;81.50;;;;;;5179829;28;20052;-70
2021/05/02 02:12:24;;;;;;;4.20;3.80;;;5.40;81.30;;;;;;5207343;28;20528;-69
2021/05/02 02:14:55;;;;;;;3.60;3.30;;;5.40;81.90;;;;;;5196716;28;20107;-69
2021/05/02 02:17:28;;;;;;;3.75;3.45;;;5.40;81.70;;;;;;5196859;28;20123;-69
2021/05/02 02:19:59;;;;;;;3.63;3.33;;;5.40;81.00;;;;;;5197174;28;20423;-69
2021/05/02 02:22:37;;;;;;;3.75;3.45;;;5.40;81.20;;;;;;5196130;28;20485;-70
2021/05/02 02:25:10;;;;;;;4.18;3.78;;;5.50;81.30;;;;;;5194954;28;20049;-69
2021/05/02 02:27:42;;;;;;;3.72;3.40;;;5.50;81.50;;;;;;5193862;28;20029;-70
2021/05/02 02:30:18;;;;;;;3.80;3.40;;;5.40;81.40;;;;;;5189662;28;20115;-69
2021/05/02 02:32:51;;;;;;;4.10;3.70;;;5.40;81.30;;;;;;5196756;28;20123;-69
2021/05/02 02:35:26;;;;;;;3.88;3.47;;;5.40;81.00;;;;;;5177883;28;20080;-69
2021/05/02 02:37:58;;;;;;;4.10;3.70;;;5.30;81.70;;;;;;5197178;28;20042;-70
2021/05/02 02:40:36;;;;;;;3.80;3.40;;;5.30;81.80;;;;;;5194002;28;20053;-69
2021/05/02 02:43:12;;;;;;;5.72;3.65;;;5.30;82.60;;;;;;5195827;28;20033;-70
2021/05/02 02:45:44;;;;;;;4.18;3.70;;;5.30;82.30;;;;;;5194522;28;20073;-69
2021/05/02 02:48:19;;;;;;;4.05;3.65;;;5.40;82.00;;;;;;5197359;28;20554;-70
2021/05/02 02:50:55;;;;;;;3.70;3.40;;;5.40;81.40;;;;;;5196530;28;20132;-70
2021/05/02 02:53:29;;;;;;;3.75;3.35;;;5.40;81.30;;;;;;5197004;28;20048;-71
2021/05/02 02:56:04;;;;;;;3.85;3.53;;;5.40;81.40;;;;;;5199719;28;20042;-70
2021/05/02 02:58:42;;;;;;;4.00;3.60;;;5.40;81.00;;;;;;5200611;28;20557;-70
2021/05/02 03:01:15;;;;;;;3.95;3.55;;;5.40;80.60;;;;;;5199223;28;20053;-71
2021/05/02 03:03:49;;;;;;;4.13;3.72;;;5.40;81.80;;;;;;5198927;28;20049;-70
2021/05/02 03:06:24;;;;;;;3.85;3.50;;;5.40;81.20;;;;;;5198768;28;20080;-69
2021/05/02 03:08:56;;;;;;;3.80;3.40;;;5.40;81.30;;;;;;5199039;28;20505;-69
2021/05/02 03:11:28;;;;;;;4.25;3.85;;;5.40;81.30;;;;;;5186456;28;20095;-70
2021/05/02 03:14:06;;;;;;;3.97;3.40;;;5.50;80.90;;;;;;5199217;28;20172;-70
2021/05/02 03:16:39;;;;;;;4.00;3.60;;;5.50;81.60;;;;;;5198492;28;20500;-69
2021/05/02 03:19:28;;;;;;;4.10;3.70;;;5.50;82.10;;;;;;5196158;28;20144;-69
2021/05/02 03:22:15;;;;;;;4.32;3.92;;;5.40;81.80;;;;;;5188640;28;20174;-70
2021/05/02 03:24:50;;;;;;;3.97;3.50;;;5.40;81.80;;;;;;5199870;28;20130;-70
2021/05/02 03:27:27;;;;;;;5.03;3.75;;;5.40;81.40;;;;;;5199504;28;20041;-69
2021/05/02 03:30:05;;;;;;;4.20;3.80;;;5.40;81.70;;;;;;5198773;28;20037;-70
2021/05/02 03:32:43;;;;;;;4.35;3.95;;;5.40;81.80;;;;;;5196731;28;20067;-70
2021/05/02 03:35:17;;;;;;;4.32;3.92;;;5.50;82.00;;;;;;5198326;28;20057;-69
2021/05/02 03:38:00;;;;;;;4.57;4.10;;;5.40;82.20;;;;;;5199598;28;20048;-70
2021/05/02 03:40:31;;;;;;;4.25;3.85;;;5.40;82.20;;;;;;5199004;28;20119;-70
2021/05/02 03:43:05;;;;;;;4.30;3.90;;;5.50;82.20;;;;;;5194385;28;20033;-70
2021/05/02 03:45:36;;;;;;;4.38;3.97;;;5.40;82.10;;;;;;5196861;28;20053;-70
2021/05/02 03:48:08;;;;;;;4.90;4.40;;;5.40;82.50;;;;;;5198097;28;20444;-69
2021/05/02 03:50:39;;;;;;;4.40;4.00;;;5.50;82.80;;;;;;5196667;28;20144;-70
2021/05/02 03:53:11;;;;;;;4.32;3.92;;;5.50;82.30;;;;;;5199343;28;20063;-72
2021/05/02 03:55:46;;;;;;;4.40;4.00;;;5.40;81.80;;;;;;5198960;28;20156;-70
2021/05/02 03:58:18;;;;;;;4.40;4.00;;;5.50;82.00;;;;;;5199596;28;20053;-70
2021/05/02 04:00:49;;;;;;;4.78;4.30;;;5.40;81.60;;;;;;5198425;28;20135;-70
2021/05/02 04:03:20;;;;;;;4.70;4.20;;;5.40;81.90;;;;;;5217643;28;20156;-70
2021/05/02 04:05:52;;;;;;;5.00;4.50;;;5.40;82.00;;;;;;5196588;28;20046;-70
2021/05/02 04:08:29;;;;;;;5.95;4.68;;;5.40;82.20;;;;;;5198849;28;20045;-70
2021/05/02 04:11:00;;;;;;;4.78;4.28;;;5.40;82.20;;;;;;5198119;28;20037;-70
2021/05/02 04:13:32;;;;;;;5.38;4.85;;;5.40;82.70;;;;;;5180734;28;20388;-70
2021/05/02 04:16:03;;;;;;;4.60;4.20;;;5.40;82.40;;;;;;5195263;28;20052;-70
2021/05/02 04:18:35;;;;;;;4.65;4.05;;;5.30;81.30;;;;;;5199060;28;20438;-72
2021/05/02 04:21:06;;;;;;;4.10;3.70;;;5.20;81.50;;;;;;5196204;28;20084;-70
2021/05/02 04:23:38;;;;;;;4.30;3.90;;;5.10;80.90;;;;;;5197935;28;20096;-70
2021/05/02 04:26:09;;;;;;;4.50;4.10;;;4.90;80.60;;;;;;5196904;28;20037;-71
2021/05/02 04:28:41;;;;;;;4.60;4.20;;;4.90;81.80;;;;;;5195653;28;20946;-69
2021/05/02 04:31:13;;;;;;;4.80;4.40;;;4.80;81.60;;;;;;5197756;28;20064;-70
2021/05/02 04:33:46;;;;;;;5.43;4.93;;;4.70;81.40;;;;;;5198458;28;20049;-70
2021/05/02 04:36:17;;;;;;;5.30;4.80;;;4.60;82.00;;;;;;5212664;28;20892;-70
2021/05/02 04:38:49;;;;;;;5.03;4.63;;;4.60;81.50;;;;;;5192457;28;20112;-69
2021/05/02 04:41:20;;;;;;;4.75;4.35;;;4.70;82.40;;;;;;5218665;28;20046;-69
2021/05/02 04:43:52;;;;;;;5.00;4.60;;;4.70;82.00;;;;;;5202740;28;20038;-70
2021/05/02 04:46:23;;;;;;;5.15;4.65;;;4.70;81.90;;;;;;5197930;28;20041;-69
2021/05/02 04:48:55;;;;;;;4.60;4.20;;;4.70;82.40;;;;;;5197561;28;20081;-71
2021/05/02 04:51:27;;;;;;;4.80;4.40;;;4.80;82.40;;;;;;5196305;28;20046;-70
2021/05/02 04:53:59;;;;;;;5.40;4.40;;;4.90;82.30;;;;;;5196309;28;20037;-69
2021/05/02 04:56:30;;;;;;;5.20;4.70;;;5.00;81.80;;;;;;5196921;28;20577;-71
2021/05/02 04:59:03;;;;;;;5.10;4.60;;;5.10;81.90;;;;;;5198500;28;20132;-69
2021/05/02 05:01:36;;;;;;;5.53;5.03;;;5.20;82.10;;;;;;5197628;28;20041;-69
2021/05/02 05:04:08;;;;;;;5.85;5.07;;;5.20;81.70;;;;;;5197233;28;20076;-69
2021/05/02 05:06:39;;;;;;;5.53;5.03;;;5.20;81.60;;;;;;5205914;28;20038;-71
2021/05/02 05:09:11;;;;;;;5.80;5.30;;;5.20;82.20;;;;;;5197640;28;20037;-69
2021/05/02 05:11:42;;;;;;;5.40;4.90;;;5.20;82.20;;;;;;5198206;28;20149;-69
2021/05/02 05:14:14;;;;;;;5.32;4.82;;;5.20;82.00;;;;;;5187815;28;20087;-69
2021/05/02 05:16:45;;;;;;;5.40;4.90;;;5.20;82.20;;;;;;5185622;28;20034;-71
2021/05/02 05:19:18;;;;;;;5.40;4.90;;;5.30;82.80;;;;;;5209167;28;20542;-70
2021/05/02 05:21:50;;;;;;;5.30;4.80;;;5.30;82.30;;;;;;5196141;28;20053;-70
2021/05/02 05:24:21;;;;;;;5.10;4.60;;;5.20;81.90;;;;;;5198002;28;20376;-70
2021/05/02 05:26:52;;;;;;;5.28;4.78;;;5.30;82.00;;;;;;5178542;28;20045;-71
2021/05/02 05:29:24;;;;;;;5.30;4.80;;;5.30;81.60;;;;;;5196414;28;20048;-71
2021/05/02 05:31:55;;;;;;;5.30;4.80;;;5.30;81.30;;;;;;5193004;28;20130;-71
2021/05/02 05:34:27;;;;;;;4.75;4.35;;;5.30;81.70;;;;;;5194504;28;20046;-70
2021/05/02 05:36:59;;;;;;;5.30;4.80;;;5.40;81.60;;;;;;5196896;28;20819;-70
2021/05/02 05:39:34;;;;;;;7.10;6.40;;;5.40;81.60;;;;;;5196911;28;20053;-71
2021/05/02 05:42:06;;;;;;;7.15;6.45;;;5.30;82.30;;;;;;5187670;28;20140;-70
2021/05/02 05:44:37;;;;;;;5.93;5.32;;;5.40;82.20;;;;;;5195916;28;20045;-73
2021/05/02 05:47:11;;;;;;;5.45;4.95;;;5.40;81.70;;;;;;5177916;28;20074;-71
2021/05/02 05:49:44;;;;;;;5.32;4.82;;;5.40;82.00;;;;;;5214802;28;20156;-71
2021/05/02 05:52:16;;;;;;;4.95;4.45;;;5.40;81.70;;;;;;5196161;28;20428;-70
2021/05/02 05:54:47;;;;;;;4.60;4.20;;;5.40;81.60;;;;;;5179663;28;20136;-71
2021/05/02 05:57:18;;;;;;;4.95;4.47;;;5.50;81.70;;;;;;5196711;28;20064;-71
2021/05/02 05:59:50;;;;;;;4.85;4.45;;;5.50;81.90;;;;;;5195618;28;20049;-71
2021/05/02 06:02:21;;;;;;;4.88;4.38;;;5.50;81.90;;;;;;5195877;28;20099;-70
2021/05/02 06:04:53;;;;;;;7.68;5.57;;;5.50;81.80;;;;;;5179149;28;20052;-70
2021/05/02 06:07:24;;;;;;;5.38;4.60;;;5.50;82.10;;;;;;5194238;28;20160;-69
2021/05/02 06:09:56;;;;;;;5.22;4.72;;;5.50;81.50;;;;;;5191250;28;20637;-69
2021/05/02 06:12:27;;;;;;;4.97;4.47;;;5.50;81.50;;;;;;5194605;28;20049;-69
2021/05/02 06:14:59;;;;;;;4.90;4.40;;;5.60;81.60;;;;;;5196780;28;20049;-68
2021/05/02 06:17:30;;;;;;;5.60;4.50;;;5.60;81.30;;;;;;5188267;28;20385;-68
2021/05/02 06:20:03;;;;;;;5.10;4.30;;;5.60;81.30;;;;;;5194323;28;20666;-69
2021/05/02 06:22:34;;;;;;;4.97;4.43;;;5.60;81.30;;;;;;5191451;28;20046;-69
2021/05/02 06:25:07;;;;;;;4.90;4.40;;;5.60;81.00;;;;;;5190446;28;20041;-69
2021/05/02 06:27:39;;;;;;;4.88;4.38;;;5.70;81.00;;;;;;5195618;28;20470;-68
2021/05/02 06:30:11;;;;;;;5.40;4.90;;;5.70;81.10;;;;;;5197170;28;20045;-68
2021/05/02 06:32:42;;;;;;;4.70;4.22;;;5.70;80.70;;;;;;5193163;28;20124;-68
2021/05/02 06:35:14;;;;;;;4.90;4.40;;;5.80;80.80;;;;;;5197783;28;20045;-68
2021/05/02 06:37:45;;;;;;;4.60;4.20;;;5.80;81.00;;;;;;5200045;28;20041;-68
2021/05/02 06:40:16;;;;;;;5.45;4.95;;;5.80;80.80;;;;;;5178414;28;20107;-69
2021/05/02 06:42:48;;;;;;;5.28;4.70;;;5.80;80.70;;;;;;5198444;28;20045;-68
2021/05/02 06:45:19;;;;;;;4.70;4.20;;;5.90;81.10;;;;;;5188347;28;20033;-68
2021/05/02 06:47:51;;;;;;;4.90;4.40;;;5.90;81.10;;;;;;5197413;28;20045;-67
2021/05/02 06:50:22;;;;;;;5.20;4.70;;;5.90;81.70;;;;;;5196319;28;20038;-71
2021/05/02 06:52:54;;;;;;;5.00;4.50;;;5.90;80.90;;;;;;5199179;28;20046;-67
2021/05/02 06:55:26;;;;;;;4.90;4.40;;;5.90;81.20;;;;;;5213941;28;20053;-68
2021/05/02 06:57:59;;;;;;;8.43;4.43;;;5.90;80.30;;;;;;5192874;28;20049;-68
2021/05/02 07:00:31;;;;;;;4.80;4.30;;;5.90;80.90;;;;;;5198625;28;20049;-68
2021/05/02 07:03:03;;;;;;;5.53;5.03;;;6.00;81.30;;;;;;5192780;28;20495;-68
2021/05/02 07:05:35;;;;;;;5.22;4.70;;;6.00;80.80;;;;;;5198510;28;20614;-68
2021/05/02 07:08:06;;;;;;;5.10;4.60;;;6.00;80.60;;;;;;5199239;28;20469;-68
2021/05/02 07:10:38;;;;;;;5.32;4.82;;;6.10;80.80;;;;;;5196368;28;20049;-68
2021/05/02 07:13:09;;;;;;;4.70;4.30;;;6.10;80.80;;;;;;5199166;28;20095;-68
2021/05/02 07:15:40;;;;;;;5.00;4.50;;;6.10;80.40;;;;;;5198698;28;20038;-68
2021/05/02 07:18:12;;;;;;;4.93;4.43;;;6.10;79.00;;;;;;5190035;28;20045;-68
2021/05/02 07:20:43;;;;;;;4.85;4.43;;;6.20;79.80;;;;;;5197150;28;20064;-68
2021/05/02 07:23:15;;;;;;;4.97;4.47;;;6.20;79.60;;;;;;5196142;28;20052;-68
2021/05/02 07:25:47;;;;;;;5.03;4.57;;;6.30;79.70;;;;;;5194884;28;20045;-69
2021/05/02 07:28:18;;;;;;;4.75;4.32;;;6.30;79.70;;;;;;5197323;28;20049;-68
2021/05/02 07:30:50;;;;;;;5.30;4.78;;;6.40;79.40;;;;;;5195481;28;20149;-68
2021/05/02 07:33:23;;;;;;;5.13;4.63;;;6.40;79.10;;;;;;5197896;28;20455;-68
2021/05/02 07:35:56;;;;;;;5.40;4.90;;;6.30;77.90;;;;;;5198476;28;20081;-68
2021/05/02 07:38:28;;;;;;;4.97;4.47;;;6.40;77.80;;;;;;5198988;28;20133;-68
2021/05/02 07:41:01;;;;;;;4.90;4.40;;;6.40;78.20;;;;;;5197681;28;20045;-68
2021/05/02 07:43:33;;;;;;;5.43;4.78;;;6.50;77.70;;;;;;5196917;28;20446;-68
2021/05/02 07:46:05;;;;;;;5.25;4.50;;;6.50;78.30;;;;;;5198039;28;20037;-68
2021/05/02 07:48:37;;;;;;;4.57;4.18;;;6.50;78.10;;;;;;5197694;28;20099;-67
2021/05/02 07:51:10;;;;;;;5.25;4.63;;;6.60;77.20;;;;;;5198363;28;20128;-68
2021/05/02 07:53:42;;;;;;;4.50;4.10;;;6.60;77.50;;;;;;5197901;28;20124;-68
2021/05/02 07:56:14;;;;;;;4.75;4.25;;;6.60;76.60;;;;;;5193094;28;20053;-68
2021/05/02 07:58:45;;;;;;;4.72;4.32;;;6.60;76.90;;;;;;5198593;28;20045;-68
2021/05/02 08:01:17;;;;;;;4.80;4.38;;;6.60;77.80;;;;;;5196552;28;20053;-68
2021/05/02 08:03:50;;;;;;;4.57;4.18;;;6.60;76.70;;;;;;5199156;28;20124;-68
2021/05/02 08:06:26;;;;;;;5.00;4.50;;;6.50;77.20;;;;;;5191379;28;20056;-68
2021/05/02 08:08:58;;;;;;;4.55;4.15;;;6.60;78.00;;;;;;5195446;28;20115;-68
2021/05/02 08:11:30;;;;;;;5.10;4.57;;;6.50;76.30;;;;;;5183925;28;20073;-67
2021/05/02 08:14:02;;;;;;;4.97;4.47;;;6.50;76.00;;;;;;5197145;28;20049;-68
2021/05/02 08:16:34;;;;;;;4.40;3.95;;;6.60;76.20;;;;;;5197596;28;20550;-69
2021/05/02 08:19:06;;;;;;;4.90;4.40;;;6.60;77.60;;;;;;5197435;28;20976;-68
2021/05/02 08:21:41;;;;;;;5.57;5.00;;;6.60;76.30;;;;;;5196149;28;20111;-68
2021/05/02 08:24:12;;;;;;;5.68;5.07;;;6.60;77.00;;;;;;5190274;28;20029;-69
2021/05/02 08:26:44;;;;;;;5.28;4.78;;;6.50;76.70;;;;;;5173979;28;20037;-68
2021/05/02 08:29:15;;;;;;;4.50;4.10;;;6.50;77.20;;;;;;5197499;28;20138;-69
2021/05/02 08:31:47;;;;;;;4.97;4.47;;;6.40;77.40;;;;;;5196593;28;20038;-69
2021/05/02 08:34:18;;;;;;;8.20;5.90;;;6.30;78.70;;;;;;5197239;28;20128;-68
2021/05/02 08:36:50;;;;;;;7.70;5.85;;;6.40;78.70;;;;;;5198003;28;20049;-68
2021/05/02 08:39:21;;;;;;;5.18;4.68;;;6.50;79.00;;;;;;5198113;28;20080;-68
2021/05/02 08:41:53;;;;;;;5.22;4.70;;;6.70;77.60;;;;;;5197464;28;20045;-67
2021/05/02 08:44:26;;;;;;;4.90;4.40;;;6.80;78.40;;;;;;5197092;28;20045;-67
2021/05/02 08:46:57;;;;;;;4.95;4.45;;;6.80;76.10;;;;;;5195110;28;20046;-67
2021/05/02 08:49:29;;;;;;;4.70;4.30;;;6.90;77.40;;;;;;5196192;28;20045;-68
2021/05/02 08:52:00;;;;;;;5.30;4.80;;;6.90;77.10;;;;;;5195959;28;20048;-69
2021/05/02 08:54:32;;;;;;;4.90;4.40;;;6.80;76.90;;;;;;5196685;28;20045;-69
2021/05/02 08:57:04;;;;;;;4.85;4.35;;;6.80;77.60;;;;;;5191104;28;20045;-68
2021/05/02 08:59:35;;;;;;;5.07;4.57;;;6.80;77.50;;;;;;5197092;28;20388;-68
2021/05/02 09:02:07;;;;;;;5.30;4.80;;;6.80;76.60;;;;;;5196956;28;20037;-69
2021/05/02 09:04:53;;;;;;;5.53;4.90;;;6.80;76.40;;;;;;5192469;28;20103;-67
2021/05/02 09:07:25;;;;;;;5.47;4.78;;;6.90;76.80;;;;;;5196057;28;20049;-67
2021/05/02 09:09:57;;;;;;;6.10;5.47;;;6.90;76.80;;;;;;5197067;28;20099;-68
2021/05/02 09:12:28;;;;;;;6.78;6.00;;;6.90;76.50;;;;;;5196888;28;20103;-68
2021/05/02 09:15:03;;;;;;;6.60;5.90;;;7.00;77.10;;;;;;5197691;28;20418;-68
2021/05/02 09:18:17;;;;;;;6.50;5.78;;;7.00;76.30;;;;;;5194234;28;20053;-68
2021/05/02 09:20:53;;;;;;;6.57;5.88;;;7.00;76.60;;;;;;5194317;28;20049;-68
2021/05/02 09:23:40;;;;;;;5.82;5.22;;;7.00;76.10;;;;;;5195626;28;20049;-67
2021/05/02 09:26:23;;;;;;;8.07;6.40;;;7.00;76.20;;;;;;5196902;28;20585;-68
2021/05/02 09:28:56;;;;;;;6.85;6.13;;;7.00;76.70;;;;;;5197251;28;20044;-69
2021/05/02 09:31:30;;;;;;;7.57;6.78;;;7.10;77.00;;;;;;5195526;28;20045;-68
2021/05/02 09:34:18;;;;;;;7.80;7.00;;;7.10;76.30;;;;;;5198452;28;20049;-69
2021/05/02 09:37:05;;;;;;;11.40;9.80;;;7.10;75.70;;;;;;5193672;28;20053;-68
2021/05/02 09:40:00;;;;;;;10.30;9.30;;;7.10;75.80;;;;;;5217918;28;20045;-69
2021/05/02 09:42:35;;;;;;;9.63;8.63;;;7.20;76.40;;;;;;5209722;28;20065;-68
2021/05/02 09:45:10;;;;;;;9.23;8.23;;;7.30;76.20;;;;;;5193468;28;20447;-67
2021/05/02 09:47:44;;;;;;;9.85;8.68;;;7.30;77.70;;;;;;5195199;28;20045;-67
2021/05/02 09:50:18;;;;;;;8.32;7.40;;;7.40;78.10;;;;;;5193120;28;20515;-67
2021/05/02 09:53:07;;;;;;;7.82;7.03;;;7.50;76.60;;;;;;5195599;28;20044;-68
2021/05/02 09:55:41;;;;;;;7.78;6.97;;;7.50;77.20;;;;;;5192914;28;20119;-67
2021/05/02 09:58:19;;;;;;;7.53;6.82;;;7.60;77.40;;;;;;5209627;28;20403;-68
2021/05/02 10:00:51;;;;;;;8.40;7.60;;;7.80;77.20;;;;;;5194202;28;20052;-67
2021/05/02 10:03:25;;;;;;;9.18;8.27;;;7.90;77.70;;;;;;5195668;28;20068;-68
2021/05/02 10:05:58;;;;;;;9.40;8.40;;;8.10;76.90;;;;;;5200783;28;20055;-68
2021/05/02 10:08:40;;;;;;;10.02;9.02;;;8.20;76.20;;;;;;5200601;28;20049;-68
2021/05/02 10:11:12;;;;;;;10.43;9.43;;;8.30;76.40;;;;;;5199762;28;20541;-68
2021/05/02 10:13:43;;;;;;;11.32;9.43;;;8.40;75.50;;;;;;5182437;28;20053;-68
2021/05/02 10:16:15;;;;;;;10.55;9.43;;;8.40;75.20;;;;;;5200061;28;20041;-67
2021/05/02 10:18:47;;;;;;;10.50;9.50;;;8.50;75.70;;;;;;5196478;28;20948;-67
2021/05/02 10:21:19;;;;;;;10.40;9.30;;;8.60;74.50;;;;;;5199670;28;20037;-68
2021/05/02 10:23:51;;;;;;;11.27;10.18;;;8.60;72.10;;;;;;5199806;28;20475;-66
2021/05/02 10:26:22;;;;;;;10.45;9.40;;;8.60;73.90;;;;;;5198444;28;20042;-67
2021/05/02 10:28:55;;;;;;;10.68;9.57;;;8.70;72.40;;;;;;5199786;28;20523;-67
2021/05/02 10:31:29;;;;;;;10.35;9.35;;;8.70;73.40;;;;;;5199772;28;20123;-68
2021/05/02 10:34:00;;;;;;;9.68;8.60;;;8.80;72.90;;;;;;5198832;28;20060;-67
2021/05/02 10:36:32;;;;;;;10.40;9.30;;;8.90;72.00;;;;;;5199256;28;20073;-67
2021/05/02 10:39:12;;;;;;;10.40;9.30;;;9.00;70.60;;;;;;5195182;28;20060;-66
2021/05/02 10:41:57;;;;;;;10.68;9.57;;;9.10;72.30;;;;;;5198450;28;20759;-67
2021/05/02 10:44:31;;;;;;;11.20;10.18;;;9.20;70.00;;;;;;5197469;28;20131;-67
2021/05/02 10:47:03;;;;;;;10.85;9.75;;;9.40;70.90;;;;;;5198608;28;20091;-67
2021/05/02 10:49:34;;;;;;;11.43;10.23;;;9.50;71.40;;;;;;5198909;28;20037;-66
2021/05/02 10:52:28;;;;;;;11.55;10.43;;;9.70;70.90;;;;;;5196728;28;20423;-67
2021/05/02 10:55:14;;;;;;;12.18;10.98;;;9.80;70.70;;;;;;5197340;28;20515;-69
2021/05/02 10:57:45;;;;;;;11.65;10.55;;;10.00;71.10;;;;;;5197586;28;20046;-68
2021/05/02 11:00:17;;;;;;;12.25;11.02;;;9.90;67.10;;;;;;5197959;28;20557;-69
2021/05/02 11:02:49;;;;;;;12.30;11.00;;;10.10;70.20;;;;;;5199066;28;20053;-68
2021/05/02 11:05:22;;;;;;;12.93;11.52;;;10.40;67.00;;;;;;5194467;28;20067;-68
2021/05/02 11:07:56;;;;;;;11.77;10.57;;;10.50;68.70;;;;;;5196970;28;20045;-68
2021/05/02 11:10:51;;;;;;;11.90;10.80;;;10.60;66.50;;;;;;5197643;28;20038;-68
2021/05/02 11:13:26;;;;;;;12.75;11.55;;;10.70;68.00;;;;;;5199351;28;20087;-68
2021/05/02 11:16:25;;;;;;;11.70;10.60;;;10.90;68.40;;;;;;5198056;28;20042;-67
2021/05/02 11:18:57;;;;;;;11.47;10.37;;;11.00;65.30;;;;;;5198475;28;21020;-68
2021/05/02 11:21:55;;;;;;;11.63;10.52;;;10.90;60.40;;;;;;5196127;28;20595;-68
2021/05/02 11:24:51;;;;;;;10.98;9.98;;;10.90;61.10;;;;;;5194461;28;20041;-67
2021/05/02 11:27:42;;;;;;;12.38;11.18;;;10.80;60.50;;;;;;5196970;28;20049;-68
2021/05/02 11:30:18;;;;;;;11.02;9.93;;;10.80;58.90;;;;;;5197978;28;20113;-67
2021/05/02 11:32:51;;;;;;;11.10;10.10;;;10.70;61.70;;;;;;5186097;28;20055;-67
2021/05/02 11:35:53;;;;;;;11.20;10.10;;;10.70;63.50;;;;;;5196875;28;20472;-71
2021/05/02 11:38:39;;;;;;;11.98;10.88;;;10.80;61.10;;;;;;5186530;28;20061;-67
2021/05/02 11:41:11;;;;;;;11.52;10.32;;;10.80;61.90;;;;;;5196068;28;20048;-67
2021/05/02 11:43:43;;;;;;;11.77;10.68;;;10.90;62.30;;;;;;5175622;28;618734;-67
2021/05/02 11:46:23;;;;;;;11.35;10.25;;;10.90;64.00;;;;;;5195326;28;20118;-68
2021/05/02 11:48:58;;;;;;;10.73;9.73;;;11.00;62.30;;;;;;5198328;28;20052;-67
2021/05/02 11:51:31;;;;;;;11.15;10.05;;;10.90;61.10;;;;;;5194679;28;20144;-68
2021/05/02 11:54:04;;;;;;;10.73;9.65;;;10.90;60.40;;;;;;5213319;28;20055;-68
2021/05/02 11:56:35;;;;;;;10.27;9.27;;;10.90;62.40;;;;;;5198233;28;20049;-67
2021/05/02 11:59:08;;;;;;;10.15;9.15;;;10.80;60.70;;;;;;5189816;28;20506;-68
2021/05/02 12:01:41;;;;;;;8.68;7.88;;;10.80;62.30;;;;;;5196171;28;20060;-67
2021/05/02 12:04:18;;;;;;;9.65;8.65;;;10.70;59.50;;;;;;5197045;28;20041;-67
2021/05/02 12:06:58;;;;;;;9.40;8.50;;;10.70;60.10;;;;;;5197289;28;20789;-66
2021/05/02 12:09:31;;;;;;;9.27;8.38;;;10.70;61.00;;;;;;5197635;28;20630;-67
2021/05/02 12:12:04;;;;;;;9.18;8.27;;;10.60;60.90;;;;;;5180935;28;20123;-67
2021/05/02 12:14:36;;;;;;;9.63;8.63;;;10.60;63.60;;;;;;5199182;28;20069;-67
2021/05/02 12:17:08;;;;;;;9.43;8.13;;;10.60;61.30;;;;;;5195805;28;20067;-67
2021/05/02 12:19:53;;;;;;;23.85;16.48;;;10.60;60.10;;;;;;5192562;28;20562;-68
2021/05/02 12:22:24;;;;;;;9.30;8.40;;;10.60;60.20;;;;;;5194947;28;20056;-67
2021/05/02 12:24:56;;;;;;;10.23;9.23;;;10.70;56.70;;;;;;5194932;28;20060;-67
2021/05/02 12:27:27;;;;;;;10.23;9.23;;;10.70;58.30;;;;;;5193140;28;20053;-68
2021/05/02 12:29:59;;;;;;;9.85;8.82;;;10.90;61.00;;;;;;5197456;28;20045;-67
2021/05/02 12:32:30;;;;;;;9.20;8.30;;;11.00;57.70;;;;;;5197079;28;20099;-67
2021/05/02 12:35:02;;;;;;;9.95;8.95;;;11.20;59.60;;;;;;5196243;28;20068;-67
2021/05/02 12:37:34;;;;;;;9.40;8.50;;;11.20;57.10;;;;;;5197321;28;20045;-67
2021/05/02 12:40:44;;;;;;;9.80;8.90;;;10.90;59.10;;;;;;5178213;28;20061;-66
2021/05/02 12:43:24;;;;;;;10.55;9.48;;;10.70;58.80;;;;;;5186768;28;20454;-67
2021/05/02 12:45:56;;;;;;;9.85;8.95;;;10.50;59.70;;;;;;5181401;28;20049;-66
2021/05/02 12:48:35;;;;;;;10.55;9.55;;;10.60;61.10;;;;;;5196663;28;20057;-68
2021/05/02 12:51:06;;;;;;;11.40;10.20;;;10.90;59.90;;;;;;5196349;28;20155;-66
2021/05/02 12:53:42;;;;;;;13.30;10.05;;;11.00;59.40;;;;;;5196318;28;20077;-67
2021/05/02 12:56:21;;;;;;;11.60;10.50;;;11.10;61.40;;;;;;5197116;28;20045;-67
2021/05/02 12:58:52;;;;;;;11.23;9.88;;;11.10;61.80;;;;;;5196986;28;20077;-67
2021/05/02 13:01:23;;;;;;;10.45;9.52;;;11.30;57.60;;;;;;5195951;28;20113;-69
2021/05/02 13:03:59;;;;;;;11.00;9.90;;;11.50;60.60;;;;;;5197309;28;20033;-67
2021/05/02 13:06:43;;;;;;;11.48;10.38;;;11.90;60.00;;;;;;5196580;28;20095;-67
2021/05/02 13:09:15;;;;;;;11.70;10.60;;;12.10;61.50;;;;;;5198700;28;20045;-67
2021/05/02 13:11:57;;;;;;;10.90;9.52;;;12.30;61.40;;;;;;5196117;28;20042;-67
2021/05/02 13:14:30;;;;;;;10.73;9.73;;;12.50;59.50;;;;;;5194857;28;20518;-67
2021/05/02 13:17:09;;;;;;;12.00;10.90;;;12.80;56.00;;;;;;5192258;28;20111;-67
2021/05/02 13:19:44;;;;;;;10.77;9.77;;;12.70;58.00;;;;;;5196238;28;20045;-67
2021/05/02 13:22:25;;;;;;;15.13;13.38;;;12.80;55.80;;;;;;5195527;28;20037;-66
2021/05/02 13:24:57;;;;;;;12.60;11.40;;;12.60;55.70;;;;;;5200483;28;20053;-67
2021/05/02 13:27:37;;;;;;;10.65;9.65;;;12.70;54.40;;;;;;5195301;28;20041;-69
2021/05/02 13:30:13;;;;;;;11.35;10.20;;;12.50;56.70;;;;;;5196529;28;20750;-67